sensor_id;sensor_type;location;lat;lon;timestamp;P1;durP1;ratioP1;P2;durP2;ratioP2
35891;SDS011;21993;42.672;23.296;2022-09-11T00:00:48;6.93;;;6.27;;
35891;SDS011;21993;42.672;23.296;2022-09-11T00:03:15;8.53;;;6.47;;
35891;SDS011;21993;42.672;23.296;2022-09-11T00:05:42;8.87;;;7.33;;
35891;SDS011;21993;42.672;23.296;2022-09-11T00:08:09;9.40;;;6.50;;
35891;SDS011;21993;42.672;23.296;2022-09-11T00:10:40;7.33;;;6.60;;
35891;SDS011;21993;42.672;23.296;2022-09-11T00:13:07;8.17;;;6.90;;
35891;SDS011;21993;42.672;23.296;2022-09-11T00:15:35;8.73;;;6.13;;
35891;SDS011;21993;42.672;23.296;2022-09-11T00:18:02;12.63;;;6.90;;
35891;SDS011;21993;42.672;23.296;2022-09-11T00:20:27;11.27;;;7.07;;
35891;SDS011;21993;42.672;23.296;2022-09-11T00:22:53;12.37;;;7.27;;
35891;SDS011;21993;42.672;23.296;2022-09-11T00:25:18;7.87;;;6.63;;
35891;SDS011;21993;42.672;23.296;2022-09-11T00:27:44;11.27;;;7.30;;
35891;SDS011;21993;42.672;23.296;2022-09-11T00:30:09;9.60;;;6.63;;
35891;SDS011;21993;42.672;23.296;2022-09-11T00:32:35;8.57;;;7.00;;
35891;SDS011;21993;42.672;23.296;2022-09-11T00:35:01;8.50;;;6.57;;
35891;SDS011;21993;42.672;23.296;2022-09-11T00:37:26;8.00;;;7.20;;
35891;SDS011;21993;42.672;23.296;2022-09-11T00:39:52;8.20;;;7.23;;
35891;SDS011;21993;42.672;23.296;2022-09-11T00:42:18;7.13;;;6.30;;
35891;SDS011;21993;42.672;23.296;2022-09-11T00:47:11;8.50;;;6.83;;
35891;SDS011;21993;42.672;23.296;2022-09-11T00:49:47;11.03;;;7.90;;
35891;SDS011;21993;42.672;23.296;2022-09-11T00:57:51;8.30;;;7.03;;
35891;SDS011;21993;42.672;23.296;2022-09-11T01:00:21;10.53;;;7.00;;
35891;SDS011;21993;42.672;23.296;2022-09-11T01:02:48;9.30;;;7.20;;
35891;SDS011;21993;42.672;23.296;2022-09-11T01:05:14;9.30;;;6.97;;
35891;SDS011;21993;42.672;23.296;2022-09-11T01:07:41;7.37;;;6.60;;
35891;SDS011;21993;42.672;23.296;2022-09-11T01:10:10;12.40;;;7.53;;
35891;SDS011;21993;42.672;23.296;2022-09-11T01:15:45;10.90;;;6.63;;
35891;SDS011;21993;42.672;23.296;2022-09-11T01:21:03;8.93;;;7.20;;
35891;SDS011;21993;42.672;23.296;2022-09-11T01:23:37;8.30;;;7.03;;
35891;SDS011;21993;42.672;23.296;2022-09-11T01:26:22;8.47;;;6.90;;
35891;SDS011;21993;42.672;23.296;2022-09-11T01:29:16;8.20;;;6.63;;
35891;SDS011;21993;42.672;23.296;2022-09-11T01:32:08;8.73;;;6.80;;
35891;SDS011;21993;42.672;23.296;2022-09-11T01:37:12;7.33;;;5.77;;
35891;SDS011;21993;42.672;23.296;2022-09-11T01:40:11;6.17;;;5.53;;
35891;SDS011;21993;42.672;23.296;2022-09-11T01:42:47;6.60;;;5.77;;
35891;SDS011;21993;42.672;23.296;2022-09-11T01:45:17;5.93;;;5.17;;
35891;SDS011;21993;42.672;23.296;2022-09-11T01:47:44;6.43;;;5.63;;
35891;SDS011;21993;42.672;23.296;2022-09-11T01:50:13;7.33;;;5.80;;
35891;SDS011;21993;42.672;23.296;2022-09-11T01:52:44;5.60;;;5.10;;
35891;SDS011;21993;42.672;23.296;2022-09-11T01:55:38;6.27;;;5.50;;
35891;SDS011;21993;42.672;23.296;2022-09-11T01:58:10;5.87;;;5.20;;
35891;SDS011;21993;42.672;23.296;2022-09-11T02:00:40;7.60;;;5.00;;
35891;SDS011;21993;42.672;23.296;2022-09-11T02:03:56;7.50;;;4.87;;
35891;SDS011;21993;42.672;23.296;2022-09-11T02:06:04;5.97;;;5.40;;
35891;SDS011;21993;42.672;23.296;2022-09-11T02:11:11;6.70;;;5.20;;
35891;SDS011;21993;42.672;23.296;2022-09-11T02:16:19;5.77;;;5.00;;
35891;SDS011;21993;42.672;23.296;2022-09-11T02:19:10;4.90;;;4.50;;
35891;SDS011;21993;42.672;23.296;2022-09-11T02:21:38;9.13;;;5.70;;
35891;SDS011;21993;42.672;23.296;2022-09-11T02:24:04;7.43;;;5.07;;
35891;SDS011;21993;42.672;23.296;2022-09-11T02:26:31;6.13;;;5.07;;
35891;SDS011;21993;42.672;23.296;2022-09-11T02:29:01;5.90;;;5.10;;
35891;SDS011;21993;42.672;23.296;2022-09-11T02:31:27;6.43;;;5.80;;
35891;SDS011;21993;42.672;23.296;2022-09-11T02:33:53;6.33;;;5.60;;
35891;SDS011;21993;42.672;23.296;2022-09-11T02:36:32;8.30;;;5.60;;
35891;SDS011;21993;42.672;23.296;2022-09-11T02:44:41;8.07;;;7.10;;
35891;SDS011;21993;42.672;23.296;2022-09-11T02:47:31;9.97;;;8.13;;
35891;SDS011;21993;42.672;23.296;2022-09-11T02:50:15;10.03;;;9.03;;
35891;SDS011;21993;42.672;23.296;2022-09-11T02:53:40;12.83;;;9.57;;
35891;SDS011;21993;42.672;23.296;2022-09-11T03:00:51;12.63;;;10.70;;
35891;SDS011;21993;42.672;23.296;2022-09-11T03:03:17;11.50;;;10.03;;
35891;SDS011;21993;42.672;23.296;2022-09-11T03:05:44;12.90;;;10.67;;
35891;SDS011;21993;42.672;23.296;2022-09-11T03:08:10;14.60;;;10.43;;
35891;SDS011;21993;42.672;23.296;2022-09-11T03:10:37;11.43;;;10.13;;
35891;SDS011;21993;42.672;23.296;2022-09-11T03:13:02;12.73;;;9.03;;
35891;SDS011;21993;42.672;23.296;2022-09-11T03:15:28;16.27;;;9.87;;
35891;SDS011;21993;42.672;23.296;2022-09-11T03:17:53;10.93;;;8.63;;
35891;SDS011;21993;42.672;23.296;2022-09-11T03:20:18;10.10;;;8.60;;
35891;SDS011;21993;42.672;23.296;2022-09-11T03:22:45;8.93;;;8.03;;
35891;SDS011;21993;42.672;23.296;2022-09-11T03:25:11;8.57;;;7.77;;
35891;SDS011;21993;42.672;23.296;2022-09-11T03:27:37;8.90;;;8.00;;
35891;SDS011;21993;42.672;23.296;2022-09-11T03:30:04;10.03;;;8.00;;
35891;SDS011;21993;42.672;23.296;2022-09-11T03:32:30;9.07;;;7.20;;
35891;SDS011;21993;42.672;23.296;2022-09-11T03:34:56;9.73;;;8.17;;
35891;SDS011;21993;42.672;23.296;2022-09-11T03:37:21;9.87;;;7.73;;
35891;SDS011;21993;42.672;23.296;2022-09-11T03:39:47;10.17;;;7.53;;
35891;SDS011;21993;42.672;23.296;2022-09-11T03:42:12;8.43;;;7.63;;
35891;SDS011;21993;42.672;23.296;2022-09-11T03:44:39;11.03;;;8.27;;
35891;SDS011;21993;42.672;23.296;2022-09-11T03:47:05;11.07;;;7.63;;
35891;SDS011;21993;42.672;23.296;2022-09-11T03:49:31;9.80;;;7.87;;
35891;SDS011;21993;42.672;23.296;2022-09-11T03:51:57;9.30;;;7.53;;
35891;SDS011;21993;42.672;23.296;2022-09-11T03:54:22;8.63;;;7.77;;
35891;SDS011;21993;42.672;23.296;2022-09-11T03:56:47;10.73;;;8.40;;
35891;SDS011;21993;42.672;23.296;2022-09-11T03:59:13;8.87;;;7.73;;
35891;SDS011;21993;42.672;23.296;2022-09-11T04:01:38;9.87;;;8.07;;
35891;SDS011;21993;42.672;23.296;2022-09-11T04:04:04;9.83;;;8.30;;
35891;SDS011;21993;42.672;23.296;2022-09-11T04:06:30;10.33;;;7.37;;
35891;SDS011;21993;42.672;23.296;2022-09-11T04:08:58;11.57;;;7.97;;
35891;SDS011;21993;42.672;23.296;2022-09-11T04:11:24;12.23;;;8.33;;
35891;SDS011;21993;42.672;23.296;2022-09-11T04:13:50;13.00;;;8.00;;
35891;SDS011;21993;42.672;23.296;2022-09-11T04:16:16;12.27;;;8.30;;
35891;SDS011;21993;42.672;23.296;2022-09-11T04:18:43;13.00;;;8.43;;
35891;SDS011;21993;42.672;23.296;2022-09-11T04:21:14;10.13;;;8.53;;
35891;SDS011;21993;42.672;23.296;2022-09-11T04:23:40;10.90;;;8.30;;
35891;SDS011;21993;42.672;23.296;2022-09-11T04:26:16;11.17;;;8.37;;
35891;SDS011;21993;42.672;23.296;2022-09-11T04:28:43;15.00;;;8.43;;
35891;SDS011;21993;42.672;23.296;2022-09-11T04:31:10;10.40;;;8.87;;
35891;SDS011;21993;42.672;23.296;2022-09-11T04:33:36;10.90;;;8.27;;
35891;SDS011;21993;42.672;23.296;2022-09-11T04:36:05;10.53;;;8.57;;
35891;SDS011;21993;42.672;23.296;2022-09-11T04:38:32;12.67;;;8.03;;
35891;SDS011;21993;42.672;23.296;2022-09-11T04:41:01;13.77;;;8.30;;
35891;SDS011;21993;42.672;23.296;2022-09-11T04:43:28;12.57;;;7.67;;
35891;SDS011;21993;42.672;23.296;2022-09-11T04:46:05;10.33;;;8.40;;
35891;SDS011;21993;42.672;23.296;2022-09-11T04:48:34;11.43;;;8.10;;
35891;SDS011;21993;42.672;23.296;2022-09-11T04:51:05;10.23;;;8.10;;
35891;SDS011;21993;42.672;23.296;2022-09-11T04:53:33;9.80;;;7.63;;
35891;SDS011;21993;42.672;23.296;2022-09-11T04:58:32;12.47;;;7.77;;
35891;SDS011;21993;42.672;23.296;2022-09-11T05:00:58;9.97;;;7.53;;
35891;SDS011;21993;42.672;23.296;2022-09-11T05:03:23;10.50;;;8.00;;
35891;SDS011;21993;42.672;23.296;2022-09-11T05:05:49;9.23;;;7.23;;
35891;SDS011;21993;42.672;23.296;2022-09-11T05:08:14;11.63;;;8.53;;
35891;SDS011;21993;42.672;23.296;2022-09-11T05:10:43;10.50;;;7.90;;
35891;SDS011;21993;42.672;23.296;2022-09-11T05:13:08;9.00;;;7.87;;
35891;SDS011;21993;42.672;23.296;2022-09-11T05:15:34;9.13;;;8.07;;
35891;SDS011;21993;42.672;23.296;2022-09-11T05:17:59;12.13;;;8.60;;
35891;SDS011;21993;42.672;23.296;2022-09-11T05:20:25;12.17;;;8.67;;
35891;SDS011;21993;42.672;23.296;2022-09-11T05:22:50;9.97;;;8.30;;
35891;SDS011;21993;42.672;23.296;2022-09-11T05:25:17;10.63;;;9.00;;
35891;SDS011;21993;42.672;23.296;2022-09-11T05:27:43;14.90;;;9.10;;
35891;SDS011;21993;42.672;23.296;2022-09-11T05:30:08;12.40;;;8.73;;
35891;SDS011;21993;42.672;23.296;2022-09-11T05:32:34;10.07;;;8.40;;
35891;SDS011;21993;42.672;23.296;2022-09-11T05:35:00;11.97;;;8.83;;
35891;SDS011;21993;42.672;23.296;2022-09-11T05:37:25;9.90;;;8.57;;
35891;SDS011;21993;42.672;23.296;2022-09-11T05:39:51;12.33;;;9.53;;
35891;SDS011;21993;42.672;23.296;2022-09-11T05:42:16;9.43;;;8.43;;
35891;SDS011;21993;42.672;23.296;2022-09-11T05:44:42;13.77;;;9.60;;
35891;SDS011;21993;42.672;23.296;2022-09-11T05:47:08;9.47;;;7.73;;
35891;SDS011;21993;42.672;23.296;2022-09-11T05:49:33;8.70;;;7.83;;
35891;SDS011;21993;42.672;23.296;2022-09-11T05:51:59;11.30;;;8.23;;
35891;SDS011;21993;42.672;23.296;2022-09-11T05:54:25;9.30;;;7.97;;
35891;SDS011;21993;42.672;23.296;2022-09-11T05:56:51;10.17;;;8.27;;
35891;SDS011;21993;42.672;23.296;2022-09-11T05:59:17;11.20;;;9.00;;
35891;SDS011;21993;42.672;23.296;2022-09-11T06:01:44;10.57;;;9.57;;
35891;SDS011;21993;42.672;23.296;2022-09-11T06:04:11;9.63;;;8.47;;
35891;SDS011;21993;42.672;23.296;2022-09-11T06:06:37;12.80;;;9.30;;
35891;SDS011;21993;42.672;23.296;2022-09-11T06:09:03;11.77;;;9.97;;
35891;SDS011;21993;42.672;23.296;2022-09-11T06:11:29;11.97;;;10.03;;
35891;SDS011;21993;42.672;23.296;2022-09-11T06:13:55;11.10;;;9.90;;
35891;SDS011;21993;42.672;23.296;2022-09-11T06:16:21;11.47;;;9.83;;
35891;SDS011;21993;42.672;23.296;2022-09-11T06:18:48;12.60;;;11.17;;
35891;SDS011;21993;42.672;23.296;2022-09-11T06:21:15;11.67;;;10.27;;
35891;SDS011;21993;42.672;23.296;2022-09-11T06:23:46;17.00;;;11.57;;
35891;SDS011;21993;42.672;23.296;2022-09-11T06:26:14;11.57;;;10.37;;
35891;SDS011;21993;42.672;23.296;2022-09-11T06:28:41;16.53;;;11.33;;
35891;SDS011;21993;42.672;23.296;2022-09-11T06:31:08;12.83;;;11.40;;
35891;SDS011;21993;42.672;23.296;2022-09-11T06:33:40;11.67;;;10.37;;
35891;SDS011;21993;42.672;23.296;2022-09-11T06:36:08;11.77;;;10.17;;
35891;SDS011;21993;42.672;23.296;2022-09-11T06:38:35;12.00;;;10.77;;
35891;SDS011;21993;42.672;23.296;2022-09-11T06:41:03;14.20;;;10.63;;
35891;SDS011;21993;42.672;23.296;2022-09-11T06:43:30;12.60;;;10.00;;
35891;SDS011;21993;42.672;23.296;2022-09-11T06:46:08;13.37;;;10.70;;
35891;SDS011;21993;42.672;23.296;2022-09-11T06:48:41;14.83;;;11.13;;
35891;SDS011;21993;42.672;23.296;2022-09-11T06:51:09;11.73;;;10.43;;
35891;SDS011;21993;42.672;23.296;2022-09-11T06:53:35;14.10;;;9.83;;
35891;SDS011;21993;42.672;23.296;2022-09-11T06:56:02;10.77;;;9.63;;
35891;SDS011;21993;42.672;23.296;2022-09-11T06:58:29;12.97;;;10.07;;
35891;SDS011;21993;42.672;23.296;2022-09-11T07:01:05;13.33;;;10.20;;
35891;SDS011;21993;42.672;23.296;2022-09-11T07:03:40;14.47;;;10.77;;
35891;SDS011;21993;42.672;23.296;2022-09-11T07:06:09;13.47;;;9.63;;
35891;SDS011;21993;42.672;23.296;2022-09-11T07:08:35;11.17;;;10.00;;
35891;SDS011;21993;42.672;23.296;2022-09-11T07:11:01;9.60;;;8.60;;
35891;SDS011;21993;42.672;23.296;2022-09-11T07:13:30;13.30;;;9.73;;
35891;SDS011;21993;42.672;23.296;2022-09-11T07:16:00;18.93;;;9.47;;
35891;SDS011;21993;42.672;23.296;2022-09-11T07:18:36;11.23;;;8.37;;
35891;SDS011;21993;42.672;23.296;2022-09-11T07:21:10;9.83;;;8.30;;
35891;SDS011;21993;42.672;23.296;2022-09-11T07:23:38;10.00;;;9.00;;
35891;SDS011;21993;42.672;23.296;2022-09-11T07:26:06;11.30;;;8.60;;
35891;SDS011;21993;42.672;23.296;2022-09-11T07:28:33;8.80;;;7.90;;
35891;SDS011;21993;42.672;23.296;2022-09-11T07:31:11;13.30;;;8.50;;
35891;SDS011;21993;42.672;23.296;2022-09-11T07:33:40;9.57;;;8.57;;
35891;SDS011;21993;42.672;23.296;2022-09-11T07:36:10;10.77;;;8.73;;
35891;SDS011;21993;42.672;23.296;2022-09-11T07:38:40;9.53;;;8.63;;
35891;SDS011;21993;42.672;23.296;2022-09-11T07:41:07;9.87;;;8.57;;
35891;SDS011;21993;42.672;23.296;2022-09-11T07:43:36;13.13;;;9.63;;
35891;SDS011;21993;42.672;23.296;2022-09-11T07:46:03;11.07;;;9.40;;
35891;SDS011;21993;42.672;23.296;2022-09-11T07:48:29;9.50;;;8.47;;
35891;SDS011;21993;42.672;23.296;2022-09-11T07:50:56;9.37;;;8.40;;
35891;SDS011;21993;42.672;23.296;2022-09-11T07:53:27;11.97;;;9.30;;
35891;SDS011;21993;42.672;23.296;2022-09-11T07:55:53;9.60;;;8.70;;
35891;SDS011;21993;42.672;23.296;2022-09-11T07:58:18;10.13;;;9.00;;
35891;SDS011;21993;42.672;23.296;2022-09-11T08:00:44;9.87;;;8.87;;
35891;SDS011;21993;42.672;23.296;2022-09-11T08:03:09;9.73;;;8.13;;
35891;SDS011;21993;42.672;23.296;2022-09-11T08:05:35;9.93;;;8.50;;
35891;SDS011;21993;42.672;23.296;2022-09-11T08:08:00;9.23;;;8.33;;
35891;SDS011;21993;42.672;23.296;2022-09-11T08:10:26;10.37;;;8.47;;
35891;SDS011;21993;42.672;23.296;2022-09-11T08:12:51;10.93;;;9.83;;
35891;SDS011;21993;42.672;23.296;2022-09-11T08:15:17;11.17;;;10.07;;
35891;SDS011;21993;42.672;23.296;2022-09-11T08:17:46;9.40;;;8.50;;
35891;SDS011;21993;42.672;23.296;2022-09-11T08:20:11;10.30;;;8.87;;
35891;SDS011;21993;42.672;23.296;2022-09-11T08:22:37;10.17;;;9.17;;
35891;SDS011;21993;42.672;23.296;2022-09-11T08:25:03;10.27;;;9.27;;
35891;SDS011;21993;42.672;23.296;2022-09-11T08:27:29;11.10;;;9.50;;
35891;SDS011;21993;42.672;23.296;2022-09-11T08:29:55;10.53;;;9.53;;
35891;SDS011;21993;42.672;23.296;2022-09-11T08:32:20;11.67;;;9.63;;
35891;SDS011;21993;42.672;23.296;2022-09-11T08:34:46;11.47;;;9.70;;
35891;SDS011;21993;42.672;23.296;2022-09-11T08:37:12;10.93;;;9.10;;
35891;SDS011;21993;42.672;23.296;2022-09-11T08:39:37;10.87;;;9.77;;
35891;SDS011;21993;42.672;23.296;2022-09-11T08:42:05;11.40;;;9.30;;
35891;SDS011;21993;42.672;23.296;2022-09-11T08:44:52;11.20;;;9.23;;
35891;SDS011;21993;42.672;23.296;2022-09-11T08:47:30;11.33;;;9.03;;
35891;SDS011;21993;42.672;23.296;2022-09-11T08:50:07;11.40;;;9.60;;
35891;SDS011;21993;42.672;23.296;2022-09-11T08:52:40;9.70;;;8.67;;
35891;SDS011;21993;42.672;23.296;2022-09-11T08:55:13;13.40;;;9.20;;
35891;SDS011;21993;42.672;23.296;2022-09-11T09:00:20;13.87;;;9.60;;
35891;SDS011;21993;42.672;23.296;2022-09-11T09:16:31;9.57;;;8.57;;
35891;SDS011;21993;42.672;23.296;2022-09-11T09:19:10;10.20;;;8.43;;
35891;SDS011;21993;42.672;23.296;2022-09-11T09:21:53;10.87;;;8.93;;
35891;SDS011;21993;42.672;23.296;2022-09-11T09:24:23;12.70;;;8.70;;
35891;SDS011;21993;42.672;23.296;2022-09-11T09:26:53;9.87;;;8.87;;
35891;SDS011;21993;42.672;23.296;2022-09-11T09:29:24;10.57;;;9.47;;
35891;SDS011;21993;42.672;23.296;2022-09-11T09:32:00;10.83;;;9.37;;
35891;SDS011;21993;42.672;23.296;2022-09-11T09:34:32;11.47;;;8.67;;
35891;SDS011;21993;42.672;23.296;2022-09-11T09:39:36;9.77;;;8.80;;
35891;SDS011;21993;42.672;23.296;2022-09-11T09:47:19;12.10;;;8.83;;
35891;SDS011;21993;42.672;23.296;2022-09-11T09:49:45;10.17;;;9.00;;
35891;SDS011;21993;42.672;23.296;2022-09-11T09:52:15;10.37;;;8.37;;
35891;SDS011;21993;42.672;23.296;2022-09-11T09:54:42;9.53;;;8.53;;
35891;SDS011;21993;42.672;23.296;2022-09-11T09:57:25;10.27;;;8.47;;
35891;SDS011;21993;42.672;23.296;2022-09-11T10:00:01;9.20;;;8.17;;
35891;SDS011;21993;42.672;23.296;2022-09-11T10:05:26;8.30;;;7.33;;
35891;SDS011;21993;42.672;23.296;2022-09-11T10:11:02;10.07;;;7.17;;
35891;SDS011;21993;42.672;23.296;2022-09-11T10:13:30;10.67;;;8.13;;
35891;SDS011;21993;42.672;23.296;2022-09-11T10:15:58;8.70;;;7.20;;
35891;SDS011;21993;42.672;23.296;2022-09-11T10:24:01;8.97;;;8.17;;
35891;SDS011;21993;42.672;23.296;2022-09-11T10:26:44;12.13;;;8.57;;
35891;SDS011;21993;42.672;23.296;2022-09-11T10:31:48;10.87;;;8.10;;
35891;SDS011;21993;42.672;23.296;2022-09-11T10:34:16;8.73;;;7.37;;
35891;SDS011;21993;42.672;23.296;2022-09-11T10:39:20;9.27;;;7.43;;
35891;SDS011;21993;42.672;23.296;2022-09-11T10:41:47;10.67;;;7.47;;
35891;SDS011;21993;42.672;23.296;2022-09-11T10:44:18;8.77;;;7.83;;
35891;SDS011;21993;42.672;23.296;2022-09-11T10:47:00;7.73;;;6.93;;
35891;SDS011;21993;42.672;23.296;2022-09-11T10:49:46;7.60;;;6.90;;
35891;SDS011;21993;42.672;23.296;2022-09-11T10:57:52;7.63;;;6.57;;
35891;SDS011;21993;42.672;23.296;2022-09-11T11:00:37;8.20;;;7.50;;
35891;SDS011;21993;42.672;23.296;2022-09-11T11:05:42;7.87;;;7.17;;
35891;SDS011;21993;42.672;23.296;2022-09-11T11:24:35;7.93;;;7.10;;
35891;SDS011;21993;42.672;23.296;2022-09-11T11:27:19;9.33;;;7.80;;
35891;SDS011;21993;42.672;23.296;2022-09-11T11:30:14;12.50;;;7.43;;
35891;SDS011;21993;42.672;23.296;2022-09-11T11:40:55;6.93;;;6.33;;
35891;SDS011;21993;42.672;23.296;2022-09-11T11:43:37;8.63;;;7.43;;
35891;SDS011;21993;42.672;23.296;2022-09-11T11:46:19;12.53;;;7.60;;
35891;SDS011;21993;42.672;23.296;2022-09-11T11:48:52;7.67;;;6.87;;
35891;SDS011;21993;42.672;23.296;2022-09-11T11:51:25;7.40;;;6.70;;
35891;SDS011;21993;42.672;23.296;2022-09-11T11:54:03;7.50;;;6.80;;
35891;SDS011;21993;42.672;23.296;2022-09-11T12:01:48;8.60;;;7.80;;
35891;SDS011;21993;42.672;23.296;2022-09-11T12:04:20;7.30;;;6.60;;
35891;SDS011;21993;42.672;23.296;2022-09-11T12:07:27;7.53;;;6.83;;
35891;SDS011;21993;42.672;23.296;2022-09-11T12:09:56;8.67;;;7.27;;
35891;SDS011;21993;42.672;23.296;2022-09-11T12:12:24;8.30;;;7.50;;
35891;SDS011;21993;42.672;23.296;2022-09-11T12:15:16;7.60;;;6.80;;
35891;SDS011;21993;42.672;23.296;2022-09-11T12:17:43;7.83;;;7.03;;
35891;SDS011;21993;42.672;23.296;2022-09-11T12:22:58;8.30;;;7.50;;
35891;SDS011;21993;42.672;23.296;2022-09-11T12:34:03;9.77;;;7.93;;
35891;SDS011;21993;42.672;23.296;2022-09-11T12:36:26;7.13;;;6.53;;
35891;SDS011;21993;42.672;23.296;2022-09-11T12:39:28;8.30;;;7.50;;
35891;SDS011;21993;42.672;23.296;2022-09-11T12:45:02;7.17;;;6.33;;
35891;SDS011;21993;42.672;23.296;2022-09-11T12:47:32;12.23;;;7.80;;
35891;SDS011;21993;42.672;23.296;2022-09-11T12:52:33;6.70;;;6.10;;
35891;SDS011;21993;42.672;23.296;2022-09-11T12:58:02;6.73;;;6.03;;
35891;SDS011;21993;42.672;23.296;2022-09-11T13:00:36;6.23;;;5.63;;
35891;SDS011;21993;42.672;23.296;2022-09-11T13:03:05;6.63;;;6.03;;
35891;SDS011;21993;42.672;23.296;2022-09-11T13:05:40;7.23;;;6.50;;
35891;SDS011;21993;42.672;23.296;2022-09-11T13:08:16;9.63;;;6.13;;
35891;SDS011;21993;42.672;23.296;2022-09-11T13:10:48;7.07;;;6.23;;
35891;SDS011;21993;42.672;23.296;2022-09-11T13:18:49;7.50;;;6.70;;
35891;SDS011;21993;42.672;23.296;2022-09-11T13:21:16;9.77;;;6.53;;
35891;SDS011;21993;42.672;23.296;2022-09-11T13:23:45;7.33;;;5.97;;
35891;SDS011;21993;42.672;23.296;2022-09-11T13:26:21;7.57;;;6.40;;
35891;SDS011;21993;42.672;23.296;2022-09-11T13:28:51;11.30;;;7.80;;
35891;SDS011;21993;42.672;23.296;2022-09-11T13:31:20;9.63;;;7.37;;
35891;SDS011;21993;42.672;23.296;2022-09-11T13:33:53;7.17;;;6.47;;
35891;SDS011;21993;42.672;23.296;2022-09-11T13:36:20;7.50;;;6.80;;
35891;SDS011;21993;42.672;23.296;2022-09-11T13:38:48;8.03;;;7.00;;
35891;SDS011;21993;42.672;23.296;2022-09-11T13:41:18;11.30;;;6.77;;
35891;SDS011;21993;42.672;23.296;2022-09-11T13:43:50;7.67;;;6.87;;
35891;SDS011;21993;42.672;23.296;2022-09-11T13:48:47;7.37;;;6.57;;
35891;SDS011;21993;42.672;23.296;2022-09-11T13:51:17;7.53;;;6.50;;
35891;SDS011;21993;42.672;23.296;2022-09-11T13:53:53;8.70;;;7.10;;
35891;SDS011;21993;42.672;23.296;2022-09-11T14:10:25;8.57;;;6.40;;
35891;SDS011;21993;42.672;23.296;2022-09-11T14:15:30;7.07;;;5.70;;
35891;SDS011;21993;42.672;23.296;2022-09-11T14:18:02;6.43;;;5.70;;
35891;SDS011;21993;42.672;23.296;2022-09-11T14:20:30;6.43;;;5.83;;
35891;SDS011;21993;42.672;23.296;2022-09-11T14:22:59;6.67;;;5.97;;
35891;SDS011;21993;42.672;23.296;2022-09-11T14:25:28;6.73;;;5.27;;
35891;SDS011;21993;42.672;23.296;2022-09-11T14:27:54;7.97;;;6.07;;
35891;SDS011;21993;42.672;23.296;2022-09-11T14:30:42;7.83;;;7.03;;
35891;SDS011;21993;42.672;23.296;2022-09-11T14:35:49;7.80;;;6.30;;
35891;SDS011;21993;42.672;23.296;2022-09-11T14:38:18;11.00;;;8.40;;
35891;SDS011;21993;42.672;23.296;2022-09-11T14:40:47;6.20;;;5.63;;
35891;SDS011;21993;42.672;23.296;2022-09-11T14:43:17;7.53;;;6.43;;
35891;SDS011;21993;42.672;23.296;2022-09-11T14:45:48;6.63;;;6.03;;
35891;SDS011;21993;42.672;23.296;2022-09-11T14:48:18;6.83;;;6.13;;
35891;SDS011;21993;42.672;23.296;2022-09-11T14:50:44;7.07;;;6.37;;
35891;SDS011;21993;42.672;23.296;2022-09-11T14:53:14;6.23;;;5.63;;
35891;SDS011;21993;42.672;23.296;2022-09-11T14:55:42;7.23;;;5.63;;
35891;SDS011;21993;42.672;23.296;2022-09-11T14:58:08;7.27;;;6.20;;
35891;SDS011;21993;42.672;23.296;2022-09-11T15:00:34;7.57;;;5.90;;
35891;SDS011;21993;42.672;23.296;2022-09-11T15:02:59;6.87;;;6.17;;
35891;SDS011;21993;42.672;23.296;2022-09-11T15:05:25;6.20;;;5.60;;
35891;SDS011;21993;42.672;23.296;2022-09-11T15:07:51;6.50;;;5.83;;
35891;SDS011;21993;42.672;23.296;2022-09-11T15:10:17;8.60;;;5.43;;
35891;SDS011;21993;42.672;23.296;2022-09-11T15:12:43;6.00;;;5.40;;
35891;SDS011;21993;42.672;23.296;2022-09-11T15:15:09;5.83;;;5.17;;
35891;SDS011;21993;42.672;23.296;2022-09-11T15:17:35;6.13;;;5.53;;
35891;SDS011;21993;42.672;23.296;2022-09-11T15:20:02;6.53;;;5.80;;
35891;SDS011;21993;42.672;23.296;2022-09-11T15:22:30;6.87;;;6.17;;
35891;SDS011;21993;42.672;23.296;2022-09-11T15:24:55;6.17;;;5.57;;
35891;SDS011;21993;42.672;23.296;2022-09-11T15:27:22;6.33;;;5.43;;
35891;SDS011;21993;42.672;23.296;2022-09-11T15:29:49;6.10;;;5.50;;
35891;SDS011;21993;42.672;23.296;2022-09-11T15:32:15;7.30;;;6.60;;
35891;SDS011;21993;42.672;23.296;2022-09-11T15:34:41;7.10;;;6.00;;
35891;SDS011;21993;42.672;23.296;2022-09-11T15:37:07;6.20;;;5.60;;
35891;SDS011;21993;42.672;23.296;2022-09-11T15:39:33;5.80;;;5.27;;
35891;SDS011;21993;42.672;23.296;2022-09-11T15:41:59;6.00;;;5.43;;
35891;SDS011;21993;42.672;23.296;2022-09-11T15:44:26;6.60;;;5.70;;
35891;SDS011;21993;42.672;23.296;2022-09-11T15:46:53;6.37;;;5.60;;
35891;SDS011;21993;42.672;23.296;2022-09-11T15:49:19;8.93;;;5.87;;
35891;SDS011;21993;42.672;23.296;2022-09-11T15:51:50;6.80;;;6.10;;
35891;SDS011;21993;42.672;23.296;2022-09-11T15:54:16;7.80;;;6.73;;
35891;SDS011;21993;42.672;23.296;2022-09-11T15:56:42;7.33;;;6.53;;
35891;SDS011;21993;42.672;23.296;2022-09-11T15:59:11;9.90;;;6.67;;
35891;SDS011;21993;42.672;23.296;2022-09-11T16:01:39;6.90;;;6.20;;
35891;SDS011;21993;42.672;23.296;2022-09-11T16:04:06;6.83;;;6.13;;
35891;SDS011;21993;42.672;23.296;2022-09-11T16:06:34;8.20;;;6.73;;
35891;SDS011;21993;42.672;23.296;2022-09-11T16:09:05;7.13;;;6.37;;
35891;SDS011;21993;42.672;23.296;2022-09-11T16:11:33;8.00;;;6.30;;
35891;SDS011;21993;42.672;23.296;2022-09-11T16:14:00;11.53;;;6.27;;
35891;SDS011;21993;42.672;23.296;2022-09-11T16:16:26;8.43;;;6.17;;
35891;SDS011;21993;42.672;23.296;2022-09-11T16:18:52;7.50;;;6.80;;
35891;SDS011;21993;42.672;23.296;2022-09-11T16:21:18;13.40;;;10.47;;
35891;SDS011;21993;42.672;23.296;2022-09-11T16:23:44;10.77;;;8.37;;
35891;SDS011;21993;42.672;23.296;2022-09-11T16:26:14;14.13;;;10.67;;
35891;SDS011;21993;42.672;23.296;2022-09-11T16:28:43;11.50;;;10.20;;
35891;SDS011;21993;42.672;23.296;2022-09-11T16:31:09;7.70;;;7.00;;
35891;SDS011;21993;42.672;23.296;2022-09-11T16:33:36;10.10;;;7.23;;
35891;SDS011;21993;42.672;23.296;2022-09-11T16:36:08;9.63;;;7.17;;
35891;SDS011;21993;42.672;23.296;2022-09-11T16:38:37;9.27;;;7.53;;
35891;SDS011;21993;42.672;23.296;2022-09-11T16:41:10;9.53;;;8.10;;
35891;SDS011;21993;42.672;23.296;2022-09-11T16:43:48;8.87;;;8.03;;
35891;SDS011;21993;42.672;23.296;2022-09-11T16:46:17;11.37;;;9.57;;
35891;SDS011;21993;42.672;23.296;2022-09-11T16:48:48;14.03;;;11.60;;
35891;SDS011;21993;42.672;23.296;2022-09-11T16:51:16;8.10;;;7.30;;
35891;SDS011;21993;42.672;23.296;2022-09-11T16:53:44;8.23;;;6.53;;
35891;SDS011;21993;42.672;23.296;2022-09-11T16:56:12;7.27;;;6.13;;
35891;SDS011;21993;42.672;23.296;2022-09-11T16:58:40;6.00;;;5.33;;
35891;SDS011;21993;42.672;23.296;2022-09-11T17:01:06;6.80;;;6.07;;
35891;SDS011;21993;42.672;23.296;2022-09-11T17:03:34;8.57;;;5.53;;
35891;SDS011;21993;42.672;23.296;2022-09-11T17:06:00;6.67;;;6.07;;
35891;SDS011;21993;42.672;23.296;2022-09-11T17:08:26;5.93;;;5.37;;
35891;SDS011;21993;42.672;23.296;2022-09-11T17:10:56;7.47;;;6.50;;
35891;SDS011;21993;42.672;23.296;2022-09-11T17:13:23;6.73;;;5.60;;
35891;SDS011;21993;42.672;23.296;2022-09-11T17:15:52;8.20;;;6.20;;
35891;SDS011;21993;42.672;23.296;2022-09-11T17:18:17;5.83;;;5.33;;
35891;SDS011;21993;42.672;23.296;2022-09-11T17:20:43;5.40;;;4.90;;
35891;SDS011;21993;42.672;23.296;2022-09-11T17:23:08;5.93;;;5.33;;